Time;durP1;ratioP1;P1;durP2;ratioP2;P2;SDS_P1;SDS_P2;PMS_P1;PMS_P2;Temp;Humidity;BMP_temperature;BMP_pressure;BME280_temperature;BME280_humidity;BME280_pressure;Samples;Min_cycle;Max_cycle;Signal;HPM_P1;HPM_P2
2023/04/15 00:01:51;;;;;;;9.80;8.27;;;;;;;;;;5073904;28;20451;-69
2023/04/15 00:04:19;;;;;;;11.18;8.77;;;;;;;;;;5074191;28;20472;-68
2023/04/15 00:06:51;;;;;;;13.93;8.65;;;;;;;;;;5073422;28;20202;-68
2023/04/15 00:09:19;;;;;;;9.40;8.52;;;;;;;;;;5073894;28;20186;-68
2023/04/15 00:11:46;;;;;;;9.83;8.13;;;;;;;;;;5073615;28;20607;-68
2023/04/15 00:14:14;;;;;;;10.20;9.20;;;;;;;;;;5074030;28;20443;-68
2023/04/15 00:16:43;;;;;;;11.50;8.03;;;;;;;;;;5073634;28;20441;-68
2023/04/15 00:19:12;;;;;;;9.93;8.40;;;;;;;;;;5073336;28;20472;-68
2023/04/15 00:21:39;;;;;;;10.95;8.82;;;;;;;;;;5073689;28;20524;-68
2023/04/15 00:24:06;;;;;;;13.27;8.47;;;;;;;;;;5073308;28;20206;-68
2023/04/15 00:26:34;;;;;;;13.32;9.63;;;;;;;;;;5074021;28;20445;-68
2023/04/15 00:29:01;;;;;;;11.07;9.50;;;;;;;;;;5073865;28;20287;-68
2023/04/15 00:31:28;;;;;;;11.27;8.80;;;;;;;;;;5073473;28;20923;-68
2023/04/15 00:33:56;;;;;;;10.05;8.95;;;;;;;;;;5073756;28;20451;-68
2023/04/15 00:36:25;;;;;;;12.70;8.55;;;;;;;;;;5073404;28;20189;-68
2023/04/15 00:38:54;;;;;;;13.20;9.67;;;;;;;;;;5073086;28;20217;-68
2023/04/15 00:41:21;;;;;;;11.50;8.47;;;;;;;;;;5073041;28;20436;-68
2023/04/15 00:43:49;;;;;;;11.83;9.07;;;;;;;;;;5073404;28;20437;-68
2023/04/15 00:46:16;;;;;;;12.48;9.38;;;;;;;;;;5073908;28;20494;-68
2023/04/15 00:48:46;;;;;;;9.43;8.40;;;;;;;;;;5073111;28;20238;-68
2023/04/15 00:51:13;;;;;;;9.10;8.20;;;;;;;;;;5073341;28;20198;-68
2023/04/15 00:53:43;;;;;;;11.88;9.43;;;;;;;;;;5075382;28;20275;-68
2023/04/15 00:56:10;;;;;;;10.27;9.27;;;;;;;;;;5077802;28;20589;-69
2023/04/15 00:58:38;;;;;;;9.77;8.75;;;;;;;;;;5077339;28;20304;-68
2023/04/15 01:01:05;;;;;;;14.45;9.38;;;;;;;;;;5077033;28;20194;-68
2023/04/15 01:03:32;;;;;;;11.65;9.68;;;;;;;;;;5076527;28;20222;-68
2023/04/15 01:06:00;;;;;;;10.40;9.30;;;;;;;;;;5077000;28;20197;-68
2023/04/15 01:08:28;;;;;;;17.77;10.15;;;;;;;;;;5077204;28;20450;-68
2023/04/15 01:10:57;;;;;;;11.60;8.80;;;;;;;;;;5077068;28;20201;-68
2023/04/15 01:13:25;;;;;;;9.97;8.83;;;;;;;;;;5076987;28;20194;-68
2023/04/15 01:15:53;;;;;;;11.50;10.13;;;;;;;;;;5077420;28;20440;-68
2023/04/15 01:18:22;;;;;;;11.60;9.55;;;;;;;;;;5076637;28;20198;-68
2023/04/15 01:20:49;;;;;;;11.55;9.65;;;;;;;;;;5077257;28;20213;-68
2023/04/15 01:23:17;;;;;;;13.40;10.25;;;;;;;;;;5076943;28;20202;-68
2023/04/15 01:25:46;;;;;;;11.50;10.30;;;;;;;;;;5076627;28;20685;-68
2023/04/15 01:28:13;;;;;;;14.20;9.33;;;;;;;;;;5076791;28;20285;-68
2023/04/15 01:30:40;;;;;;;11.60;10.35;;;;;;;;;;5076797;28;20444;-68
2023/04/15 01:33:09;;;;;;;11.60;10.20;;;;;;;;;;5076532;28;20205;-69
2023/04/15 01:35:39;;;;;;;11.52;9.52;;;;;;;;;;5076738;28;20237;-68
2023/04/15 01:38:06;;;;;;;13.45;10.60;;;;;;;;;;5076307;28;20198;-68
2023/04/15 01:40:34;;;;;;;12.23;10.68;;;;;;;;;;5076857;28;20670;-68
2023/04/15 01:43:02;;;;;;;12.95;11.15;;;;;;;;;;5076510;28;20194;-68
2023/04/15 01:45:30;;;;;;;11.88;10.15;;;;;;;;;;5076796;28;20560;-68
2023/04/15 01:47:57;;;;;;;13.75;10.13;;;;;;;;;;5076387;28;20288;-68
2023/04/15 01:50:24;;;;;;;23.35;11.55;;;;;;;;;;5076469;28;20205;-68
2023/04/15 01:52:52;;;;;;;15.65;10.73;;;;;;;;;;5076270;28;20289;-69
2023/04/15 01:55:21;;;;;;;12.20;10.25;;;;;;;;;;5076451;28;20558;-68
2023/04/15 01:57:48;;;;;;;12.02;10.45;;;;;;;;;;5076180;28;20197;-68
2023/04/15 02:00:17;;;;;;;11.50;9.77;;;;;;;;;;5076137;28;20228;-68
2023/04/15 02:02:47;;;;;;;12.20;10.68;;;;;;;;;;5075759;28;20320;-69
2023/04/15 02:05:17;;;;;;;12.75;10.48;;;;;;;;;;5076210;28;20197;-68
2023/04/15 02:07:47;;;;;;;12.27;10.55;;;;;;;;;;5076063;28;20285;-68
2023/04/15 02:10:15;;;;;;;11.73;10.52;;;;;;;;;;5076038;28;20194;-68
2023/04/15 02:12:42;;;;;;;14.18;10.60;;;;;;;;;;5076058;28;20194;-68
2023/04/15 02:15:10;;;;;;;13.00;10.65;;;;;;;;;;5076001;28;20199;-68
2023/04/15 02:17:39;;;;;;;15.10;10.30;;;;;;;;;;5075925;28;20200;-68
2023/04/15 02:20:07;;;;;;;12.45;10.75;;;;;;;;;;5075904;28;20217;-68
2023/04/15 02:22:34;;;;;;;12.52;11.00;;;;;;;;;;5075808;28;20194;-68
2023/04/15 02:25:04;;;;;;;12.27;10.38;;;;;;;;;;5075577;28;20198;-68
2023/04/15 02:27:31;;;;;;;12.13;10.85;;;;;;;;;;5076006;28;20278;-68
2023/04/15 02:29:58;;;;;;;11.80;10.60;;;;;;;;;;5075763;28;20198;-68
2023/04/15 02:32:25;;;;;;;13.30;11.00;;;;;;;;;;5075643;28;20194;-69
2023/04/15 02:34:54;;;;;;;16.20;11.43;;;;;;;;;;5076047;28;20197;-69
2023/04/15 02:37:22;;;;;;;11.50;10.30;;;;;;;;;;5075389;28;20204;-68
2023/04/15 02:39:49;;;;;;;15.57;11.52;;;;;;;;;;5075693;28;20300;-68
2023/04/15 02:42:16;;;;;;;13.95;10.27;;;;;;;;;;5075204;28;20202;-68
2023/04/15 02:44:43;;;;;;;14.10;11.90;;;;;;;;;;5075131;28;20284;-68
2023/04/15 02:47:10;;;;;;;12.20;10.90;;;;;;;;;;5075104;28;20204;-68
2023/04/15 02:49:39;;;;;;;11.55;10.35;;;;;;;;;;5074939;28;20202;-68
2023/04/15 02:52:07;;;;;;;13.02;11.30;;;;;;;;;;5075016;28;20663;-68
2023/04/15 02:54:35;;;;;;;14.00;11.98;;;;;;;;;;5075365;28;20208;-68
2023/04/15 02:57:04;;;;;;;14.80;11.32;;;;;;;;;;5075257;28;20198;-68
2023/04/15 02:59:32;;;;;;;12.50;11.00;;;;;;;;;;5074985;28;20689;-68
2023/04/15 03:02:00;;;;;;;13.32;10.63;;;;;;;;;;5075102;28;20538;-68
2023/04/15 03:04:28;;;;;;;12.93;11.52;;;;;;;;;;5074935;28;20230;-68
2023/04/15 03:06:56;;;;;;;13.82;11.65;;;;;;;;;;5074621;28;20198;-68
2023/04/15 03:09:25;;;;;;;12.48;11.13;;;;;;;;;;5075083;28;20205;-70
2023/04/15 03:11:55;;;;;;;15.85;12.32;;;;;;;;;;5074475;28;20198;-68
2023/04/15 03:14:22;;;;;;;15.60;11.77;;;;;;;;;;5074462;28;20182;-68
2023/04/15 03:16:50;;;;;;;14.60;12.40;;;;;;;;;;5073822;28;20210;-68
2023/04/15 03:19:18;;;;;;;14.93;11.40;;;;;;;;;;5074549;28;20201;-68
2023/04/15 03:21:45;;;;;;;14.90;12.52;;;;;;;;;;5074425;28;20194;-68
2023/04/15 03:24:12;;;;;;;15.25;12.52;;;;;;;;;;5074611;28;20201;-68
2023/04/15 03:26:41;;;;;;;14.68;13.18;;;;;;;;;;5074675;28;20195;-68
2023/04/15 03:29:08;;;;;;;17.45;12.40;;;;;;;;;;5074157;28;20208;-69
2023/04/15 03:31:35;;;;;;;14.55;11.93;;;;;;;;;;5074424;28;20208;-68
2023/04/15 03:34:02;;;;;;;13.65;12.15;;;;;;;;;;5074311;28;20268;-68
2023/04/15 03:36:30;;;;;;;17.02;13.55;;;;;;;;;;5074410;28;20202;-68
2023/04/15 03:38:57;;;;;;;16.27;12.00;;;;;;;;;;5074808;28;20284;-68
2023/04/15 03:41:27;;;;;;;13.55;12.10;;;;;;;;;;5074645;28;20218;-68
2023/04/15 03:43:55;;;;;;;16.55;12.40;;;;;;;;;;5074458;28;20198;-68
2023/04/15 03:46:22;;;;;;;16.33;14.27;;;;;;;;;;5073427;28;20200;-68
2023/04/15 03:48:50;;;;;;;13.98;11.38;;;;;;;;;;5073763;28;20204;-68
2023/04/15 03:51:17;;;;;;;14.02;11.68;;;;;;;;;;5074350;28;20276;-68
2023/04/15 03:53:44;;;;;;;16.25;12.13;;;;;;;;;;5074026;28;20198;-68
2023/04/15 03:56:12;;;;;;;17.45;13.02;;;;;;;;;;5073759;28;20242;-68
2023/04/15 03:58:41;;;;;;;16.23;14.13;;;;;;;;;;5073913;28;20201;-69
2023/04/15 04:01:09;;;;;;;15.82;12.55;;;;;;;;;;5073568;28;20310;-68
2023/04/15 04:03:37;;;;;;;14.73;12.15;;;;;;;;;;5073488;28;20587;-71
2023/04/15 04:06:07;;;;;;;16.58;11.38;;;;;;;;;;5073623;28;20196;-68
2023/04/15 04:08:34;;;;;;;15.00;13.27;;;;;;;;;;5073857;28;20201;-68
2023/04/15 04:11:01;;;;;;;14.55;12.48;;;;;;;;;;5073825;28;20202;-68
2023/04/15 04:13:28;;;;;;;15.82;13.60;;;;;;;;;;5073831;28;20198;-68
2023/04/15 04:15:55;;;;;;;18.35;15.13;;;;;;;;;;5089061;28;20204;-68
2023/04/15 04:18:24;;;;;;;16.42;13.35;;;;;;;;;;5093973;28;20193;-68
2023/04/15 04:20:51;;;;;;;16.75;14.13;;;;;;;;;;5093736;28;20221;-68
2023/04/15 04:23:19;;;;;;;14.68;12.85;;;;;;;;;;5093942;28;20284;-68
2023/04/15 04:25:49;;;;;;;17.10;13.48;;;;;;;;;;5093513;28;20191;-68
2023/04/15 04:28:16;;;;;;;21.38;14.27;;;;;;;;;;5093569;28;20641;-69
2023/04/15 04:30:45;;;;;;;19.48;13.27;;;;;;;;;;5093850;28;20220;-69
2023/04/15 04:33:14;;;;;;;15.88;12.25;;;;;;;;;;5093923;28;20279;-68
2023/04/15 04:35:43;;;;;;;20.88;14.95;;;;;;;;;;5093386;28;20288;-69
2023/04/15 04:38:10;;;;;;;16.20;13.65;;;;;;;;;;5093368;28;20193;-69
2023/04/15 04:40:37;;;;;;;15.98;12.45;;;;;;;;;;5093536;28;20217;-69
2023/04/15 04:43:04;;;;;;;17.88;13.30;;;;;;;;;;5093315;28;20232;-69
2023/04/15 04:45:32;;;;;;;16.67;13.48;;;;;;;;;;5093594;28;20227;-69
2023/04/15 04:47:59;;;;;;;15.55;12.75;;;;;;;;;;5094166;28;20207;-69
2023/04/15 04:50:26;;;;;;;17.27;13.45;;;;;;;;;;5093459;28;20201;-68
2023/04/15 04:52:57;;;;;;;16.42;13.07;;;;;;;;;;5093272;28;20189;-68
2023/04/15 04:55:24;;;;;;;16.85;14.32;;;;;;;;;;5093720;28;20192;-69
2023/04/15 04:57:53;;;;;;;20.02;13.48;;;;;;;;;;5093674;28;20197;-68
2023/04/15 05:00:21;;;;;;;23.45;16.00;;;;;;;;;;5092543;28;20212;-69
2023/04/15 05:02:48;;;;;;;17.25;14.70;;;;;;;;;;5092944;28;20239;-68
2023/04/15 05:05:16;;;;;;;15.50;13.55;;;;;;;;;;5093630;28;20189;-68
2023/04/15 05:07:44;;;;;;;16.25;14.43;;;;;;;;;;5093402;28;20200;-68
2023/04/15 05:10:14;;;;;;;18.67;13.90;;;;;;;;;;5093008;28;20212;-69
2023/04/15 05:12:41;;;;;;;16.95;13.90;;;;;;;;;;5093416;28;20555;-69
2023/04/15 05:15:09;;;;;;;19.90;15.43;;;;;;;;;;5092954;28;20284;-68
2023/04/15 05:17:36;;;;;;;19.13;14.65;;;;;;;;;;5093550;28;20189;-68
2023/04/15 05:20:04;;;;;;;20.08;15.27;;;;;;;;;;5093311;28;20227;-68
2023/04/15 05:22:33;;;;;;;18.92;15.40;;;;;;;;;;5093312;28;20196;-68
2023/04/15 05:25:00;;;;;;;20.42;16.00;;;;;;;;;;5093141;28;20647;-68
2023/04/15 05:27:34;;;;;;;18.75;15.35;;;;;;;;;;5093515;28;20196;-68
2023/04/15 05:30:02;;;;;;;18.42;15.18;;;;;;;;;;5093239;28;20177;-68
2023/04/15 05:32:29;;;;;;;17.48;13.82;;;;;;;;;;5093211;28;20200;-68
2023/04/15 05:34:56;;;;;;;25.85;17.10;;;;;;;;;;5093200;28;20284;-68
2023/04/15 05:37:23;;;;;;;17.15;13.55;;;;;;;;;;5093114;28;20204;-68
2023/04/15 05:39:51;;;;;;;17.80;14.30;;;;;;;;;;5095132;28;20198;-68
2023/04/15 05:42:18;;;;;;;17.85;15.07;;;;;;;;;;5096901;28;20197;-68
2023/04/15 05:44:46;;;;;;;17.85;14.65;;;;;;;;;;5096745;28;20198;-68
2023/04/15 05:47:13;;;;;;;17.08;13.93;;;;;;;;;;5096422;28;20191;-68
2023/04/15 05:49:41;;;;;;;21.77;15.95;;;;;;;;;;5096781;28;20209;-68
2023/04/15 05:52:08;;;;;;;18.70;14.60;;;;;;;;;;5096628;28;20274;-68
2023/04/15 05:54:35;;;;;;;18.25;14.02;;;;;;;;;;5096326;28;20202;-67
2023/04/15 05:57:04;;;;;;;17.90;15.23;;;;;;;;;;5096679;28;20204;-67
2023/04/15 05:59:31;;;;;;;20.17;16.02;;;;;;;;;;5096550;28;20201;-67
2023/04/15 06:02:01;;;;;;;18.90;15.65;;;;;;;;;;5096037;28;20232;-67
2023/04/15 06:04:29;;;;;;;19.60;14.73;;;;;;;;;;5096464;28;20232;-68
2023/04/15 06:06:59;;;;;;;15.57;13.88;;;;;;;;;;5096299;28;20201;-68
2023/04/15 06:09:27;;;;;;;19.90;14.43;;;;;;;;;;5096494;28;20200;-68
2023/04/15 06:11:55;;;;;;;17.75;14.30;;;;;;;;;;5095903;28;20201;-68
2023/04/15 06:14:22;;;;;;;19.45;14.45;;;;;;;;;;5096211;28;20246;-68
2023/04/15 06:16:49;;;;;;;19.45;14.85;;;;;;;;;;5096139;28;20193;-68
2023/04/15 06:19:18;;;;;;;17.83;14.88;;;;;;;;;;5096176;28;20194;-68
2023/04/15 06:21:45;;;;;;;17.85;14.00;;;;;;;;;;5096335;28;20221;-68
2023/04/15 06:24:13;;;;;;;18.80;14.65;;;;;;;;;;5096101;28;20299;-68
2023/04/15 06:26:40;;;;;;;23.25;15.13;;;;;;;;;;5095651;28;20765;-68
2023/04/15 06:29:09;;;;;;;19.45;15.40;;;;;;;;;;5096127;28;20246;-68
2023/04/15 06:31:36;;;;;;;17.17;14.15;;;;;;;;;;5096319;28;20232;-67
2023/04/15 06:34:03;;;;;;;19.63;15.05;;;;;;;;;;5096143;28;20198;-71
2023/04/15 06:36:32;;;;;;;21.00;16.70;;;;;;;;;;5096015;28;20193;-69
2023/04/15 06:39:02;;;;;;;21.08;15.95;;;;;;;;;;5095793;28;20201;-68
2023/04/15 06:41:29;;;;;;;17.85;15.05;;;;;;;;;;5095877;28;20244;-68
2023/04/15 06:43:58;;;;;;;20.38;16.08;;;;;;;;;;5095363;28;20203;-70
2023/04/15 06:46:26;;;;;;;19.73;14.55;;;;;;;;;;5095578;28;20224;-69
2023/04/15 06:48:53;;;;;;;18.42;13.70;;;;;;;;;;5095724;28;20203;-68
2023/04/15 06:51:20;;;;;;;21.83;14.60;;;;;;;;;;5094558;28;20194;-69
2023/04/15 06:53:50;;;;;;;19.33;15.13;;;;;;;;;;5095134;28;20700;-69
2023/04/15 06:56:17;;;;;;;25.08;15.27;;;;;;;;;;5095668;28;20234;-68
2023/04/15 06:58:45;;;;;;;18.65;15.40;;;;;;;;;;5095444;28;20193;-69
2023/04/15 07:01:13;;;;;;;19.05;15.00;;;;;;;;;;5094921;28;20213;-68
2023/04/15 07:03:40;;;;;;;19.50;15.43;;;;;;;;;;5095155;28;20229;-68
2023/04/15 07:06:09;;;;;;;21.02;15.05;;;;;;;;;;5094884;28;20251;-69
2023/04/15 07:08:36;;;;;;;19.08;14.13;;;;;;;;;;5095238;28;20272;-68
2023/04/15 07:11:05;;;;;;;18.35;15.40;;;;;;;;;;5095252;28;20205;-68
2023/04/15 07:13:32;;;;;;;20.48;15.43;;;;;;;;;;5095142;28;20197;-68
2023/04/15 07:16:00;;;;;;;20.05;14.80;;;;;;;;;;5094974;28;20189;-68
2023/04/15 07:18:28;;;;;;;18.65;14.82;;;;;;;;;;5094861;28;20231;-68
2023/04/15 07:20:55;;;;;;;18.42;13.60;;;;;;;;;;5094915;28;20220;-68
2023/04/15 07:23:22;;;;;;;20.35;13.70;;;;;;;;;;5094952;28;20204;-68
2023/04/15 07:25:50;;;;;;;17.38;14.93;;;;;;;;;;5094927;28;20193;-68
2023/04/15 07:28:19;;;;;;;20.67;17.00;;;;;;;;;;5094448;28;20246;-68
2023/04/15 07:30:46;;;;;;;18.00;13.95;;;;;;;;;;5095304;28;20237;-68
2023/04/15 07:33:14;;;;;;;19.58;14.45;;;;;;;;;;5092354;28;20194;-68
2023/04/15 07:35:42;;;;;;;17.17;13.98;;;;;;;;;;5074460;28;20201;-68
2023/04/15 07:38:11;;;;;;;20.30;15.60;;;;;;;;;;5074006;28;20677;-68
2023/04/15 07:40:39;;;;;;;19.73;15.50;;;;;;;;;;5073987;28;20198;-68
2023/04/15 07:43:06;;;;;;;22.75;16.85;;;;;;;;;;5074061;28;20620;-69
2023/04/15 07:45:35;;;;;;;21.05;14.52;;;;;;;;;;5074096;28;20216;-68
2023/04/15 07:48:02;;;;;;;16.58;13.88;;;;;;;;;;5074254;28;20205;-68
2023/04/15 07:50:29;;;;;;;18.73;14.35;;;;;;;;;;5074214;28;20222;-68
2023/04/15 07:52:57;;;;;;;18.80;14.57;;;;;;;;;;5074137;28;20200;-68
2023/04/15 07:55:27;;;;;;;15.45;13.02;;;;;;;;;;5074098;28;20194;-68
2023/04/15 07:57:56;;;;;;;19.27;14.18;;;;;;;;;;5073709;28;20203;-68
2023/04/15 08:00:23;;;;;;;15.73;14.05;;;;;;;;;;5074002;28;20204;-68
2023/04/15 08:02:52;;;;;;;15.15;13.55;;;;;;;;;;5073149;28;20613;-69
2023/04/15 08:05:20;;;;;;;15.73;13.93;;;;;;;;;;5073912;28;20273;-69
2023/04/15 08:07:47;;;;;;;16.33;13.65;;;;;;;;;;5073819;28;20198;-69
2023/04/15 08:10:15;;;;;;;16.50;14.07;;;;;;;;;;5074060;28;20200;-69
2023/04/15 08:12:42;;;;;;;17.88;13.55;;;;;;;;;;5073434;28;20202;-69
2023/04/15 08:15:12;;;;;;;16.75;13.75;;;;;;;;;;5073406;28;20201;-69
2023/04/15 08:17:40;;;;;;;15.30;13.55;;;;;;;;;;5073310;28;20194;-69
2023/04/15 08:20:09;;;;;;;17.50;13.75;;;;;;;;;;5073421;28;20291;-68
2023/04/15 08:22:36;;;;;;;20.25;14.80;;;;;;;;;;5073503;28;20232;-69
2023/04/15 08:25:03;;;;;;;16.05;12.18;;;;;;;;;;5073931;28;20190;-69
2023/04/15 08:27:30;;;;;;;21.15;13.85;;;;;;;;;;5073842;28;20197;-69
2023/04/15 08:29:58;;;;;;;16.88;13.02;;;;;;;;;;5073237;28;20285;-69
2023/04/15 08:32:25;;;;;;;18.95;13.45;;;;;;;;;;5073948;28;20198;-69
2023/04/15 08:34:53;;;;;;;31.85;14.80;;;;;;;;;;5073811;28;20684;-70
2023/04/15 08:37:21;;;;;;;20.92;14.57;;;;;;;;;;5073446;28;20206;-69
2023/04/15 08:39:49;;;;;;;18.85;13.85;;;;;;;;;;5073434;28;20266;-69
2023/04/15 08:42:19;;;;;;;16.83;13.35;;;;;;;;;;5073331;28;20304;-70
2023/04/15 08:44:47;;;;;;;16.77;13.05;;;;;;;;;;5073754;28;20187;-69
2023/04/15 08:47:16;;;;;;;13.98;11.10;;;;;;;;;;5074180;28;20614;-69
2023/04/15 08:49:44;;;;;;;15.55;11.70;;;;;;;;;;5073273;28;20237;-69
2023/04/15 08:52:11;;;;;;;19.88;13.52;;;;;;;;;;5073543;28;20255;-68
2023/04/15 08:54:40;;;;;;;21.27;11.75;;;;;;;;;;5073270;28;20193;-69
2023/04/15 08:57:14;;;;;;;15.32;11.40;;;;;;;;;;5073590;28;20646;-68
2023/04/15 08:59:42;;;;;;;14.82;11.25;;;;;;;;;;5073322;28;20209;-68
2023/04/15 09:02:09;;;;;;;16.58;13.15;;;;;;;;;;5072861;28;20214;-68
2023/04/15 09:04:36;;;;;;;11.85;9.23;;;;;;;;;;5073235;28;20322;-68
2023/04/15 09:07:07;;;;;;;15.20;12.32;;;;;;;;;;5073181;28;20200;-69
2023/04/15 09:09:36;;;;;;;14.15;11.10;;;;;;;;;;5073235;28;20198;-69
2023/04/15 09:12:04;;;;;;;14.18;11.45;;;;;;;;;;5072867;28;20261;-67
2023/04/15 09:14:38;;;;;;;14.90;10.95;;;;;;;;;;5074877;28;20285;-67
2023/04/15 09:17:05;;;;;;;16.80;11.93;;;;;;;;;;5076850;28;20183;-69
2023/04/15 09:19:35;;;;;;;15.90;10.75;;;;;;;;;;5076658;28;20194;-68
2023/04/15 09:22:02;;;;;;;16.70;11.70;;;;;;;;;;5076847;28;20571;-68
2023/04/15 09:24:37;;;;;;;14.20;10.20;;;;;;;;;;5076610;28;20198;-68
2023/04/15 09:27:08;;;;;;;14.37;11.57;;;;;;;;;;5076719;28;20192;-68
2023/04/15 09:29:35;;;;;;;14.43;10.52;;;;;;;;;;5076880;28;20520;-68
2023/04/15 09:32:13;;;;;;;13.80;10.82;;;;;;;;;;5077486;28;20198;-68
2023/04/15 09:34:40;;;;;;;12.65;9.43;;;;;;;;;;5077002;28;20201;-67
2023/04/15 09:37:10;;;;;;;13.02;10.05;;;;;;;;;;5076686;28;20213;-68
2023/04/15 09:39:48;;;;;;;13.97;10.27;;;;;;;;;;5076293;28;20194;-67
2023/04/15 09:42:22;;;;;;;12.35;10.02;;;;;;;;;;5076582;28;20475;-68
2023/04/15 09:44:50;;;;;;;12.37;9.80;;;;;;;;;;5076804;28;20189;-67
2023/04/15 09:47:31;;;;;;;13.38;9.77;;;;;;;;;;5087806;28;20454;-68
2023/04/15 09:49:59;;;;;;;11.50;9.80;;;;;;;;;;5096704;28;20574;-67
2023/04/15 09:52:27;;;;;;;12.40;9.40;;;;;;;;;;5096636;28;20237;-67
2023/04/15 09:54:55;;;;;;;16.63;9.80;;;;;;;;;;5096232;28;20240;-67
2023/04/15 09:57:24;;;;;;;13.10;10.55;;;;;;;;;;5096505;28;20193;-70
2023/04/15 09:59:54;;;;;;;13.00;10.30;;;;;;;;;;5096753;28;20201;-69
2023/04/15 10:02:24;;;;;;;13.70;11.13;;;;;;;;;;5096120;28;20471;-69
2023/04/15 10:04:53;;;;;;;12.30;11.00;;;;;;;;;;5095978;28;20243;-68
2023/04/15 10:07:22;;;;;;;12.97;10.57;;;;;;;;;;5096447;28;20857;-68
2023/04/15 10:09:50;;;;;;;12.48;8.98;;;;;;;;;;5096204;28;20458;-68
2023/04/15 10:12:17;;;;;;;12.75;9.82;;;;;;;;;;5096332;28;20197;-68
2023/04/15 10:14:48;;;;;;;12.70;10.20;;;;;;;;;;5095911;28;20205;-68
2023/04/15 10:17:18;;;;;;;13.53;9.80;;;;;;;;;;5096282;28;20190;-68
2023/04/15 10:19:46;;;;;;;14.20;10.80;;;;;;;;;;5096091;28;20440;-68
2023/04/15 10:22:15;;;;;;;12.57;9.60;;;;;;;;;;5095750;28;20731;-68
2023/04/15 10:24:44;;;;;;;9.95;8.95;;;;;;;;;;5095789;28;20193;-68
2023/04/15 10:27:11;;;;;;;13.20;10.02;;;;;;;;;;5096043;28;20205;-68
2023/04/15 10:29:38;;;;;;;12.15;9.15;;;;;;;;;;5095938;28;20518;-68
2023/04/15 10:32:07;;;;;;;12.85;10.52;;;;;;;;;;5095607;28;20206;-69
2023/04/15 10:34:35;;;;;;;12.55;9.35;;;;;;;;;;5095603;28;20205;-67
2023/04/15 10:37:03;;;;;;;11.50;9.02;;;;;;;;;;5096018;28;20223;-68
2023/04/15 10:39:40;;;;;;;14.00;9.88;;;;;;;;;;5095945;28;20576;-71
2023/04/15 10:42:08;;;;;;;9.23;8.30;;;;;;;;;;5095272;28;20210;-68
2023/04/15 10:44:37;;;;;;;12.63;9.70;;;;;;;;;;5095659;28;20216;-68
2023/04/15 10:47:09;;;;;;;9.32;8.35;;;;;;;;;;5095484;28;20451;-68
2023/04/15 10:49:43;;;;;;;13.60;8.07;;;;;;;;;;5095600;28;20557;-67
2023/04/15 10:52:11;;;;;;;10.27;8.43;;;;;;;;;;5095950;28;20916;-70
2023/04/15 10:54:39;;;;;;;8.38;7.57;;;;;;;;;;5096010;28;20453;-69
2023/04/15 10:57:24;;;;;;;8.93;7.15;;;;;;;;;;5095812;28;20190;-68
2023/04/15 11:00:03;;;;;;;8.03;7.03;;;;;;;;;;5095040;28;20221;-70
2023/04/15 11:02:46;;;;;;;7.40;6.70;;;;;;;;;;5095520;28;20467;-71
2023/04/15 11:05:14;;;;;;;8.57;6.40;;;;;;;;;;5095203;28;20437;-70
2023/04/15 11:07:42;;;;;;;8.53;7.63;;;;;;;;;;5095321;28;20522;-70
2023/04/15 11:10:30;;;;;;;7.63;6.70;;;;;;;;;;5095221;28;20444;-72
2023/04/15 11:13:02;;;;;;;7.07;6.15;;;;;;;;;;5085959;28;20455;-71
2023/04/15 11:15:31;;;;;;;9.00;6.85;;;;;;;;;;5095431;28;20188;-70
2023/04/15 11:18:00;;;;;;;7.80;6.90;;;;;;;;;;5094744;28;20292;-70
2023/04/15 11:20:27;;;;;;;6.55;5.72;;;;;;;;;;5094848;28;20197;-71
2023/04/15 11:22:55;;;;;;;6.50;5.83;;;;;;;;;;5094875;28;20231;-70
2023/04/15 11:25:25;;;;;;;6.83;6.03;;;;;;;;;;5094812;28;20443;-70
2023/04/15 11:27:53;;;;;;;8.60;6.40;;;;;;;;;;5094576;28;20455;-70
2023/04/15 11:30:21;;;;;;;8.13;6.20;;;;;;;;;;5094547;28;20526;-70
2023/04/15 11:32:48;;;;;;;6.27;5.70;;;;;;;;;;5094792;28;20443;-70
2023/04/15 11:35:18;;;;;;;7.20;6.50;;;;;;;;;;5094632;28;20438;-70
2023/04/15 11:37:46;;;;;;;7.20;6.20;;;;;;;;;;5094327;28;20208;-70
2023/04/15 11:40:14;;;;;;;7.13;6.10;;;;;;;;;;5094210;28;20446;-70
2023/04/15 11:42:41;;;;;;;7.05;5.80;;;;;;;;;;5094413;28;20482;-70
2023/04/15 11:45:09;;;;;;;5.90;5.27;;;;;;;;;;5094040;28;20197;-70
2023/04/15 11:47:36;;;;;;;5.00;4.57;;;;;;;;;;5094334;28;20516;-69
2023/04/15 11:50:18;;;;;;;6.40;5.57;;;;;;;;;;5094049;28;20443;-70
2023/04/15 11:52:53;;;;;;;5.90;5.00;;;;;;;;;;5094333;28;20458;-70
2023/04/15 11:55:21;;;;;;;5.67;5.17;;;;;;;;;;5094245;28;20630;-70
2023/04/15 11:57:48;;;;;;;5.70;5.10;;;;;;;;;;5094479;28;20446;-69
2023/04/15 12:00:19;;;;;;;4.53;4.13;;;;;;;;;;5093856;28;20444;-69
2023/04/15 12:02:46;;;;;;;6.20;5.60;;;;;;;;;;5093627;28;20487;-71
2023/04/15 12:05:13;;;;;;;6.03;5.43;;;;;;;;;;5093797;28;20436;-70
2023/04/15 12:08:04;;;;;;;4.80;4.37;;;;;;;;;;5093820;28;20202;-69
2023/04/15 12:10:33;;;;;;;5.10;4.40;;;;;;;;;;5094057;28;20785;-69
2023/04/15 12:13:07;;;;;;;5.60;4.47;;;;;;;;;;5093427;28;20208;-69
2023/04/15 12:15:38;;;;;;;5.43;4.32;;;;;;;;;;5094066;28;20779;-70
2023/04/15 12:18:06;;;;;;;5.50;5.10;;;;;;;;;;5093696;28;20177;-69
2023/04/15 12:20:33;;;;;;;5.35;4.82;;;;;;;;;;5093463;28;20443;-69
2023/04/15 12:23:10;;;;;;;5.00;4.50;;;;;;;;;;5093402;28;20218;-69
2023/04/15 12:25:37;;;;;;;3.85;3.50;;;;;;;;;;5093467;28;20438;-70
2023/04/15 12:28:11;;;;;;;6.80;4.50;;;;;;;;;;5094287;28;20191;-69
2023/04/15 12:30:50;;;;;;;4.97;4.45;;;;;;;;;;5094191;28;20427;-69
2023/04/15 12:33:17;;;;;;;5.83;4.20;;;;;;;;;;5093788;28;20212;-69
2023/04/15 12:35:44;;;;;;;5.40;4.43;;;;;;;;;;5093283;28;20505;-69
2023/04/15 12:38:13;;;;;;;5.10;3.80;;;;;;;;;;5093365;28;20200;-69
2023/04/15 12:40:40;;;;;;;4.57;4.15;;;;;;;;;;5093425;28;20189;-69
2023/04/15 12:43:07;;;;;;;5.40;4.90;;;;;;;;;;5093770;28;20220;-69
2023/04/15 12:45:34;;;;;;;6.10;5.50;;;;;;;;;;5093480;28;20444;-69
2023/04/15 12:48:01;;;;;;;5.20;4.70;;;;;;;;;;5093614;28;20439;-69
2023/04/15 12:50:29;;;;;;;5.00;4.50;;;;;;;;;;5093084;28;20448;-69
2023/04/15 12:52:56;;;;;;;5.33;4.83;;;;;;;;;;5093432;28;20447;-69
2023/04/15 12:55:24;;;;;;;5.53;5.03;;;;;;;;;;5093785;28;20445;-69
2023/04/15 12:57:53;;;;;;;4.90;4.40;;;;;;;;;;5093281;28;20808;-69
2023/04/15 13:00:20;;;;;;;4.57;4.17;;;;;;;;;;5093456;28;20849;-69
2023/04/15 13:02:47;;;;;;;5.93;5.43;;;;;;;;;;5092719;28;20978;-69
2023/04/15 13:05:16;;;;;;;5.63;4.77;;;;;;;;;;5093562;28;20216;-69
2023/04/15 13:07:45;;;;;;;5.10;4.60;;;;;;;;;;5093387;28;20436;-69
2023/04/15 13:10:13;;;;;;;5.13;4.67;;;;;;;;;;5093349;28;20435;-69
2023/04/15 13:12:41;;;;;;;6.43;4.20;;;;;;;;;;5092910;28;20442;-69
2023/04/15 13:15:11;;;;;;;5.50;5.00;;;;;;;;;;5093653;28;20201;-69
2023/04/15 13:17:39;;;;;;;5.43;4.90;;;;;;;;;;5093573;28;20458;-69
2023/04/15 13:20:07;;;;;;;5.90;4.43;;;;;;;;;;5093468;28;20527;-69
2023/04/15 13:22:36;;;;;;;6.67;5.37;;;;;;;;;;5093067;28;20492;-69
2023/04/15 13:25:04;;;;;;;5.37;4.87;;;;;;;;;;5093263;28;20450;-69
2023/04/15 13:27:31;;;;;;;5.13;4.20;;;;;;;;;;5092840;28;20968;-69
2023/04/15 13:29:59;;;;;;;4.72;4.32;;;;;;;;;;5093318;28;20492;-69
2023/04/15 13:32:27;;;;;;;5.80;5.00;;;;;;;;;;5092819;28;20203;-69
2023/04/15 13:34:55;;;;;;;5.63;5.03;;;;;;;;;;5093371;28;20470;-69
2023/04/15 13:37:28;;;;;;;5.13;4.63;;;;;;;;;;5093016;28;20448;-69
2023/04/15 13:39:55;;;;;;;6.63;4.18;;;;;;;;;;5093650;28;20438;-69
2023/04/15 13:42:23;;;;;;;5.47;4.30;;;;;;;;;;5093003;28;20201;-69
2023/04/15 13:44:50;;;;;;;4.82;4.05;;;;;;;;;;5092902;28;20479;-69
2023/04/15 13:47:20;;;;;;;5.05;4.20;;;;;;;;;;5092947;28;20243;-69
2023/04/15 13:49:48;;;;;;;5.85;5.25;;;;;;;;;;5093045;28;20186;-69
2023/04/15 13:52:15;;;;;;;5.70;5.20;;;;;;;;;;5092606;28;20200;-69
2023/04/15 13:54:42;;;;;;;4.55;4.15;;;;;;;;;;5092656;28;20440;-69
2023/04/15 13:57:09;;;;;;;5.00;4.45;;;;;;;;;;5093129;28;20224;-69
2023/04/15 13:59:36;;;;;;;6.73;4.50;;;;;;;;;;5093058;28;20201;-69
2023/04/15 14:02:04;;;;;;;5.00;4.50;;;;;;;;;;5096156;28;20450;-69
2023/04/15 14:04:35;;;;;;;5.70;4.77;;;;;;;;;;5096530;28;20514;-69
2023/04/15 14:07:02;;;;;;;5.13;4.65;;;;;;;;;;5096076;28;20467;-69
2023/04/15 14:09:30;;;;;;;5.40;4.97;;;;;;;;;;5096548;28;20198;-69
2023/04/15 14:12:01;;;;;;;7.78;7.00;;;;;;;;;;5096501;28;20197;-69
2023/04/15 14:14:28;;;;;;;5.40;4.87;;;;;;;;;;5095229;28;20663;-68
2023/04/15 14:16:56;;;;;;;6.17;5.27;;;;;;;;;;5096267;28;20500;-67
2023/04/15 14:19:24;;;;;;;5.20;4.73;;;;;;;;;;5095805;28;20932;-67
2023/04/15 14:21:52;;;;;;;7.60;6.25;;;;;;;;;;5095984;28;20436;-67
2023/04/15 14:24:20;;;;;;;7.03;5.28;;;;;;;;;;5096382;28;20665;-67
2023/04/15 14:26:47;;;;;;;6.53;6.00;;;;;;;;;;5096446;28;20197;-67
2023/04/15 14:29:14;;;;;;;7.30;5.80;;;;;;;;;;5096284;28;20189;-67
2023/04/15 14:31:43;;;;;;;8.33;5.90;;;;;;;;;;5095613;28;20435;-67
2023/04/15 14:34:10;;;;;;;6.97;6.20;;;;;;;;;;5095425;28;20881;-67